createdAt,value
2023-05-21T00:01:56.960Z,100.00
2023-05-21T00:04:25.669Z,100.00
2023-05-21T00:06:54.078Z,100.00
2023-05-21T00:09:22.254Z,100.00
2023-05-21T00:11:50.549Z,100.00
2023-05-21T00:14:18.633Z,100.00
2023-05-21T00:16:48.396Z,100.00
2023-05-21T00:19:16.428Z,100.00
2023-05-21T00:21:46.332Z,100.00
2023-05-21T00:24:14.810Z,100.00
2023-05-21T00:26:42.756Z,100.00
2023-05-21T00:29:10.919Z,100.00
2023-05-21T00:31:39.063Z,100.00
2023-05-21T00:34:08.541Z,100.00
2023-05-21T00:36:37.398Z,100.00
2023-05-21T00:39:06.242Z,100.00
2023-05-21T00:41:35.802Z,100.00
2023-05-21T00:44:03.994Z,100.00
2023-05-21T00:46:32.166Z,100.00
2023-05-21T00:49:00.404Z,100.00
2023-05-21T00:51:31.618Z,100.00
2023-05-21T00:53:59.872Z,100.00
2023-05-21T00:56:28.648Z,100.00
2023-05-21T00:58:58.379Z,100.00
2023-05-21T01:01:26.940Z,100.00
2023-05-21T01:03:58.075Z,100.00
2023-05-21T01:06:26.611Z,100.00
2023-05-21T01:08:58.079Z,100.00
2023-05-21T01:11:30.407Z,100.00
2023-05-21T01:14:04.276Z,100.00
2023-05-21T01:16:32.346Z,100.00
2023-05-21T01:19:06.034Z,100.00
2023-05-21T01:21:38.755Z,100.00
2023-05-21T01:24:09.163Z,100.00
2023-05-21T01:26:39.097Z,100.00
2023-05-21T01:29:13.428Z,100.00
2023-05-21T01:31:50.383Z,100.00
2023-05-21T01:34:24.604Z,100.00
2023-05-21T01:36:59.192Z,100.00
2023-05-21T01:39:31.084Z,100.00
2023-05-21T01:42:00.330Z,100.00
2023-05-21T01:44:28.984Z,100.00
2023-05-21T01:47:19.956Z,100.00
2023-05-21T01:49:48.796Z,100.00
2023-05-21T01:52:17.832Z,100.00
2023-05-21T01:54:56.992Z,100.00
2023-05-21T01:57:25.692Z,100.00
2023-05-21T01:59:54.920Z,100.00
2023-05-21T02:02:23.417Z,100.00
2023-05-21T02:04:55.635Z,100.00
2023-05-21T02:07:29.420Z,100.00
2023-05-21T02:09:59.334Z,100.00
2023-05-21T02:12:28.645Z,100.00
2023-05-21T02:14:57.831Z,100.00
2023-05-21T02:17:26.479Z,100.00
2023-05-21T02:19:59.739Z,100.00
2023-05-21T02:22:28.924Z,100.00
2023-05-21T02:25:00.543Z,100.00
2023-05-21T02:27:32.069Z,100.00
2023-05-21T02:30:00.469Z,100.00
2023-05-21T02:32:29.028Z,100.00
2023-05-21T02:34:56.960Z,100.00
2023-05-21T02:37:25.931Z,100.00
2023-05-21T02:39:54.181Z,100.00
2023-05-21T02:42:24.257Z,100.00
2023-05-21T02:44:52.879Z,100.00
2023-05-21T02:47:23.742Z,100.00
2023-05-21T02:49:52.011Z,100.00
2023-05-21T02:52:23.698Z,100.00
2023-05-21T02:54:53.399Z,100.00
2023-05-21T02:57:22.462Z,100.00
2023-05-21T02:59:53.072Z,100.00
2023-05-21T03:02:21.401Z,100.00
2023-05-21T03:04:51.824Z,100.00
2023-05-21T03:07:20.211Z,100.00
2023-05-21T03:09:48.406Z,100.00
2023-05-21T03:12:16.776Z,100.00
2023-05-21T03:14:46.349Z,100.00
2023-05-21T03:17:17.425Z,100.00
2023-05-21T03:19:45.726Z,100.00
2023-05-21T03:22:13.801Z,100.00
2023-05-21T03:24:42.505Z,100.00
2023-05-21T03:27:10.602Z,100.00
2023-05-21T03:29:40.062Z,100.00
2023-05-21T03:32:12.585Z,100.00
2023-05-21T03:34:42.376Z,100.00
2023-05-21T03:37:10.406Z,100.00
2023-05-21T03:39:38.518Z,100.00
2023-05-21T03:42:07.397Z,100.00
2023-05-21T03:44:55.941Z,100.00
2023-05-21T03:47:43.141Z,100.00
2023-05-21T03:50:15.556Z,100.00
2023-05-21T03:52:43.821Z,100.00
2023-05-21T03:55:12.641Z,100.00
2023-05-21T03:57:44.720Z,100.00
2023-05-21T04:00:12.947Z,100.00
2023-05-21T04:02:43.579Z,100.00
2023-05-21T04:05:16.758Z,100.00
2023-05-21T04:07:46.524Z,100.00
2023-05-21T04:10:14.253Z,100.00
2023-05-21T04:12:42.415Z,100.00
2023-05-21T04:15:11.040Z,100.00
2023-05-21T04:17:39.931Z,100.00
2023-05-21T04:20:08.974Z,100.00
2023-05-21T04:22:38.726Z,100.00
2023-05-21T04:25:06.996Z,100.00
2023-05-21T04:27:37.300Z,100.00
2023-05-21T04:30:05.637Z,100.00
2023-05-21T04:32:36.674Z,100.00
2023-05-21T04:35:04.635Z,100.00
2023-05-21T04:37:35.097Z,100.00
2023-05-21T04:40:05.052Z,100.00
2023-05-21T04:42:34.111Z,100.00
2023-05-21T04:45:03.139Z,100.00
2023-05-21T04:47:35.727Z,100.00
2023-05-21T04:50:05.426Z,100.00
2023-05-21T04:52:34.912Z,100.00
2023-05-21T04:55:04.105Z,100.00
2023-05-21T04:57:32.009Z,100.00
2023-05-21T05:00:01.166Z,100.00
2023-05-21T05:02:34.503Z,100.00
2023-05-21T05:05:02.959Z,100.00
2023-05-21T05:07:31.587Z,100.00
2023-05-21T05:10:00.930Z,100.00
2023-05-21T05:12:30.446Z,100.00
2023-05-21T05:14:58.321Z,100.00
2023-05-21T05:17:28.894Z,100.00
2023-05-21T05:19:56.955Z,100.00
2023-05-21T05:22:25.393Z,100.00
2023-05-21T05:24:53.801Z,100.00
2023-05-21T05:27:21.529Z,100.00
2023-05-21T05:29:50.888Z,100.00
2023-05-21T05:32:19.430Z,100.00
2023-05-21T05:34:50.222Z,100.00
2023-05-21T05:37:20.438Z,100.00
2023-05-21T05:39:48.286Z,100.00
2023-05-21T05:42:16.229Z,100.00
2023-05-21T05:44:44.222Z,100.00
2023-05-21T05:47:13.593Z,100.00
2023-05-21T05:49:41.681Z,100.00
2023-05-21T05:52:09.739Z,100.00
2023-05-21T05:54:37.293Z,100.00
2023-05-21T05:57:06.193Z,100.00
2023-05-21T05:59:35.146Z,100.00
2023-05-21T06:02:03.771Z,100.00
2023-05-21T06:04:37.188Z,100.00
2023-05-21T06:07:05.550Z,100.00
2023-05-21T06:09:34.173Z,100.00
2023-05-21T06:12:02.793Z,100.00
2023-05-21T06:14:31.244Z,100.00
2023-05-21T06:17:01.205Z,100.00
2023-05-21T06:19:31.414Z,100.00
2023-05-21T06:22:03.347Z,100.00
2023-05-21T06:24:31.557Z,100.00
2023-05-21T06:27:01.553Z,100.00
2023-05-21T06:29:29.364Z,100.00
2023-05-21T06:31:57.484Z,100.00
2023-05-21T06:34:25.547Z,100.00
2023-05-21T06:36:54.115Z,100.00
2023-05-21T06:39:24.709Z,100.00
2023-05-21T06:41:53.572Z,100.00
2023-05-21T06:44:59.737Z,100.00
2023-05-21T06:47:31.308Z,100.00
2023-05-21T06:50:02.663Z,100.00
2023-05-21T06:52:31.736Z,100.00
2023-05-21T06:55:02.632Z,100.00
2023-05-21T06:57:43.976Z,100.00
2023-05-21T07:00:13.175Z,100.00
2023-05-21T07:02:41.604Z,100.00
2023-05-21T07:05:10.362Z,100.00
2023-05-21T07:07:38.424Z,100.00
2023-05-21T07:10:08.305Z,100.00
2023-05-21T07:12:38.729Z,100.00
2023-05-21T07:15:07.948Z,100.00
2023-05-21T07:17:36.000Z,100.00
2023-05-21T07:20:05.504Z,100.00
2023-05-21T07:22:33.322Z,100.00
2023-05-21T07:25:01.251Z,100.00
2023-05-21T07:27:30.705Z,100.00
2023-05-21T07:29:58.785Z,100.00
2023-05-21T07:32:29.317Z,100.00
2023-05-21T07:34:57.572Z,100.00
2023-05-21T07:37:27.941Z,100.00
2023-05-21T07:39:57.901Z,100.00
2023-05-21T07:42:25.980Z,100.00
2023-05-21T07:44:56.299Z,100.00
2023-05-21T07:47:25.754Z,100.00
2023-05-21T07:49:53.580Z,100.00
2023-05-21T07:52:22.003Z,100.00
2023-05-21T07:54:50.225Z,100.00
2023-05-21T07:57:18.337Z,100.00
2023-05-21T07:59:59.669Z,100.00
2023-05-21T08:02:27.740Z,100.00
2023-05-21T08:04:56.352Z,100.00
2023-05-21T08:07:25.783Z,100.00
2023-05-21T08:09:54.065Z,100.00
2023-05-21T08:12:21.988Z,100.00
2023-05-21T08:14:49.695Z,100.00
2023-05-21T08:17:19.659Z,100.00
2023-05-21T08:19:48.008Z,100.00
2023-05-21T08:22:16.092Z,100.00
2023-05-21T08:24:46.561Z,91.99
2023-05-21T08:27:16.250Z,81.37
2023-05-21T08:29:44.628Z,76.72
2023-05-21T08:32:12.760Z,71.97
2023-05-21T08:34:43.022Z,83.83
2023-05-21T08:37:35.185Z,84.58
2023-05-21T08:40:23.578Z,76.51
2023-05-21T08:42:52.854Z,66.09
2023-05-21T08:45:28.884Z,83.75
2023-05-21T08:47:57.913Z,91.52
2023-05-21T08:50:30.872Z,85.85
2023-05-21T08:53:07.507Z,79.65
2023-05-21T08:55:44.857Z,70.38
2023-05-21T08:58:13.714Z,69.42
2023-05-21T09:00:43.655Z,71.89
2023-05-21T09:03:14.287Z,75.80
2023-05-21T09:05:46.930Z,83.37
2023-05-21T09:08:18.321Z,93.77
2023-05-21T09:10:55.187Z,81.46
2023-05-21T09:13:30.858Z,75.48
2023-05-21T09:16:00.022Z,70.30
2023-05-21T09:18:28.664Z,64.97
2023-05-21T09:21:27.757Z,67.25
2023-05-21T09:24:11.120Z,81.21
2023-05-21T09:26:42.310Z,80.08
2023-05-21T09:29:10.563Z,70.32
2023-05-21T09:31:44.343Z,67.04
2023-05-21T09:34:14.829Z,63.11
2023-05-21T09:36:46.317Z,64.89
2023-05-21T09:39:28.543Z,58.95
2023-05-21T09:41:58.135Z,65.00
2023-05-21T09:44:27.960Z,63.22
2023-05-21T09:46:58.900Z,62.38
2023-05-21T09:49:28.491Z,64.54
2023-05-21T09:51:59.992Z,58.83
2023-05-21T09:54:32.884Z,57.19
2023-05-21T09:57:01.785Z,48.78
2023-05-21T09:59:39.602Z,52.35
2023-05-21T10:02:17.722Z,51.12
2023-05-21T10:04:49.878Z,54.90
2023-05-21T10:07:22.079Z,61.89
2023-05-21T10:09:51.174Z,62.92
2023-05-21T10:12:19.537Z,57.85
2023-05-21T10:14:51.888Z,52.14
2023-05-21T10:17:21.522Z,53.95
2023-05-21T10:19:50.225Z,53.76
2023-05-21T10:22:20.061Z,50.33
2023-05-21T10:24:48.891Z,51.63
2023-05-21T10:27:18.516Z,53.60
2023-05-21T10:29:47.342Z,52.92
2023-05-21T10:32:16.636Z,51.35
2023-05-21T10:34:45.446Z,48.10
2023-05-21T10:37:14.601Z,47.58
2023-05-21T10:39:46.272Z,50.42
2023-05-21T10:42:20.161Z,51.22
2023-05-21T10:44:57.189Z,50.67
2023-05-21T10:47:44.467Z,50.11
2023-05-21T10:50:23.501Z,48.71
2023-05-21T10:52:58.583Z,48.64
2023-05-21T10:55:36.484Z,48.50
2023-05-21T10:58:19.680Z,45.75
2023-05-21T11:00:48.134Z,47.10
2023-05-21T11:03:17.072Z,47.75
2023-05-21T11:05:54.104Z,50.67
2023-05-21T11:08:26.736Z,52.69
2023-05-21T11:10:58.515Z,51.78
2023-05-21T11:13:27.184Z,47.28
2023-05-21T11:16:21.938Z,44.04
2023-05-21T11:19:01.172Z,42.46
2023-05-21T11:21:35.268Z,42.12
2023-05-21T11:24:05.018Z,41.11
2023-05-21T11:26:48.132Z,36.34
2023-05-21T11:29:17.822Z,36.10
2023-05-21T11:31:48.770Z,36.60
2023-05-21T11:34:20.220Z,32.54
2023-05-21T11:36:49.443Z,30.22
2023-05-21T11:39:22.383Z,29.48
2023-05-21T11:41:55.250Z,35.59
2023-05-21T11:44:40.274Z,33.69
2023-05-21T11:47:09.684Z,32.64
2023-05-21T11:49:38.776Z,30.23
2023-05-21T11:52:08.041Z,27.50
2023-05-21T11:54:41.545Z,29.97
2023-05-21T11:57:09.871Z,31.13
2023-05-21T11:59:39.433Z,32.36
2023-05-21T12:02:07.856Z,33.20
2023-05-21T12:04:36.946Z,32.80
2023-05-21T12:07:07.534Z,31.63
2023-05-21T12:09:39.955Z,33.59
2023-05-21T12:12:09.240Z,28.43
2023-05-21T12:14:38.000Z,26.12
2023-05-21T12:17:08.043Z,26.28
2023-05-21T12:19:37.367Z,26.15
2023-05-21T12:22:05.981Z,24.51
2023-05-21T12:24:34.499Z,25.92
2023-05-21T12:27:04.039Z,26.78
2023-05-21T12:29:33.101Z,24.20
2023-05-21T12:32:01.909Z,23.30
2023-05-21T12:34:41.231Z,24.03
2023-05-21T12:37:16.277Z,23.73
2023-05-21T12:39:48.650Z,24.18
2023-05-21T12:42:16.694Z,23.41
2023-05-21T12:44:47.884Z,23.61
2023-05-21T12:47:15.814Z,24.37
2023-05-21T12:49:48.190Z,23.41
2023-05-21T12:52:17.144Z,24.58
2023-05-21T12:54:46.787Z,23.70
2023-05-21T12:57:16.589Z,23.37
2023-05-21T12:59:48.813Z,24.09
2023-05-21T13:02:26.535Z,26.91
2023-05-21T13:04:59.731Z,25.83
2023-05-21T13:07:29.642Z,25.27
2023-05-21T13:09:57.775Z,23.88
2023-05-21T13:12:26.668Z,26.00
2023-05-21T13:14:55.461Z,25.39
2023-05-21T13:17:24.184Z,26.99
2023-05-21T13:20:08.376Z,27.66
2023-05-21T13:22:39.277Z,26.02
2023-05-21T13:25:07.821Z,24.36
2023-05-21T13:27:36.285Z,24.69
2023-05-21T13:30:04.570Z,25.07
2023-05-21T13:32:32.495Z,24.59
2023-05-21T13:35:00.773Z,23.57
2023-05-21T13:37:29.989Z,25.07
2023-05-21T13:39:57.711Z,26.43
2023-05-21T13:42:26.833Z,27.18
2023-05-21T13:44:54.824Z,28.87
2023-05-21T13:47:23.018Z,28.10
2023-05-21T13:49:50.871Z,26.02
2023-05-21T13:52:18.808Z,25.46
2023-05-21T13:54:49.841Z,26.77
2023-05-21T13:57:17.752Z,29.35
2023-05-21T13:59:48.900Z,29.06
2023-05-21T14:02:17.305Z,29.55
2023-05-21T14:04:45.618Z,28.37
2023-05-21T14:07:13.526Z,27.26
2023-05-21T14:09:42.314Z,28.06
2023-05-21T14:12:12.018Z,29.06
2023-05-21T14:14:40.264Z,28.66
2023-05-21T14:17:08.418Z,29.70
2023-05-21T14:19:36.396Z,30.66
2023-05-21T14:22:04.076Z,30.96
2023-05-21T14:24:33.263Z,31.31
2023-05-21T14:27:01.424Z,31.09
2023-05-21T14:29:30.937Z,30.92
2023-05-21T14:31:58.619Z,30.50
2023-05-21T14:34:27.055Z,29.57
2023-05-21T14:36:54.914Z,30.32
2023-05-21T14:39:25.049Z,30.23
2023-05-21T14:41:53.061Z,30.53
2023-05-21T14:44:21.229Z,29.84
2023-05-21T14:46:51.199Z,30.42
2023-05-21T14:49:19.096Z,30.57
2023-05-21T14:51:53.728Z,30.01
2023-05-21T14:54:21.716Z,30.19
2023-05-21T14:59:36.254Z,29.17
2023-05-21T15:02:06.945Z,29.21
2023-05-21T15:04:34.716Z,28.61
2023-05-21T15:07:02.841Z,29.14
2023-05-21T15:09:30.828Z,29.14
2023-05-21T15:12:00.545Z,29.91
2023-05-21T15:14:29.717Z,29.85
2023-05-21T15:16:57.597Z,29.86
2023-05-21T15:19:27.016Z,28.73
2023-05-21T15:21:54.841Z,29.45
2023-05-21T15:24:22.521Z,29.31
2023-05-21T15:26:54.389Z,29.00
2023-05-21T15:29:22.892Z,29.54
2023-05-21T15:31:55.354Z,29.04
2023-05-21T15:34:24.992Z,29.20
2023-05-21T15:36:54.920Z,27.84
2023-05-21T15:39:23.347Z,28.52
2023-05-21T15:41:54.565Z,28.17
2023-05-21T15:44:24.022Z,27.99
2023-05-21T15:46:54.318Z,27.63
2023-05-21T15:49:22.716Z,27.78
2023-05-21T15:51:52.181Z,29.21
2023-05-21T15:54:22.041Z,27.90
2023-05-21T15:56:52.663Z,28.70
2023-05-21T15:59:20.864Z,29.04
2023-05-21T16:01:53.017Z,29.92
2023-05-21T16:04:25.091Z,29.37
2023-05-21T16:06:53.918Z,28.32
2023-05-21T16:09:24.117Z,29.81
2023-05-21T16:11:53.828Z,29.63
2023-05-21T16:14:23.944Z,29.86
2023-05-21T16:16:52.588Z,30.78
2023-05-21T16:19:21.500Z,30.50
2023-05-21T16:21:49.906Z,29.78
2023-05-21T16:24:18.256Z,29.47
2023-05-21T16:26:49.893Z,28.29
2023-05-21T16:29:18.421Z,27.87
2023-05-21T16:31:46.371Z,26.65
2023-05-21T16:34:15.891Z,25.56
2023-05-21T16:36:43.975Z,25.80
2023-05-21T16:39:12.633Z,27.27
2023-05-21T16:41:40.701Z,26.93
2023-05-21T16:44:10.854Z,26.42
2023-05-21T16:46:39.418Z,25.12
2023-05-21T16:49:09.150Z,25.58
2023-05-21T16:51:37.589Z,25.46
2023-05-21T16:54:07.348Z,25.23
2023-05-21T16:56:36.164Z,24.23
2023-05-21T16:59:06.704Z,25.89
2023-05-21T17:01:36.655Z,26.56
2023-05-21T17:04:06.576Z,25.92
2023-05-21T17:06:35.273Z,26.46
2023-05-21T17:09:04.019Z,27.66
2023-05-21T17:11:33.103Z,26.85
2023-05-21T17:14:02.090Z,27.46
2023-05-21T17:16:30.876Z,28.94
2023-05-21T17:19:02.303Z,28.49
2023-05-21T17:21:33.077Z,28.61
2023-05-21T17:24:01.951Z,28.35
2023-05-21T17:26:36.318Z,28.23
2023-05-21T17:29:06.227Z,28.46
2023-05-21T17:31:36.544Z,29.65
2023-05-21T17:34:14.311Z,29.96
2023-05-21T17:36:43.400Z,29.61
2023-05-21T17:39:12.441Z,30.57
2023-05-21T17:41:41.705Z,29.97
2023-05-21T17:44:11.651Z,29.67
2023-05-21T17:46:40.897Z,30.32
2023-05-21T17:49:11.263Z,30.07
2023-05-21T17:51:39.432Z,30.41
2023-05-21T17:54:08.703Z,30.53
2023-05-21T17:56:39.249Z,30.89
2023-05-21T17:59:07.936Z,32.64
2023-05-21T18:01:36.797Z,34.08
2023-05-21T18:04:06.210Z,34.97
2023-05-21T18:06:36.676Z,33.47
2023-05-21T18:09:06.680Z,34.02
2023-05-21T18:11:35.778Z,34.67
2023-05-21T18:14:05.752Z,34.75
2023-05-21T18:16:34.982Z,34.79
2023-05-21T18:19:07.616Z,35.09
2023-05-21T18:21:40.884Z,36.23
2023-05-21T18:24:10.065Z,37.22
2023-05-21T18:26:38.783Z,37.15
2023-05-21T18:29:07.886Z,37.98
2023-05-21T18:31:37.074Z,39.46
2023-05-21T18:34:06.096Z,40.73
2023-05-21T18:36:39.406Z,41.43
2023-05-21T18:39:13.917Z,42.58
2023-05-21T18:41:43.263Z,44.56
2023-05-21T18:44:15.592Z,45.86
2023-05-21T18:46:44.033Z,46.82
2023-05-21T18:49:12.320Z,47.14
2023-05-21T18:51:40.080Z,47.77
2023-05-21T18:54:08.751Z,48.24
2023-05-21T18:56:40.468Z,48.71
2023-05-21T18:59:09.316Z,50.43
2023-05-21T19:01:39.842Z,52.31
2023-05-21T19:04:07.817Z,53.62
2023-05-21T19:06:36.538Z,54.80
2023-05-21T19:09:04.875Z,56.51
2023-05-21T19:11:34.636Z,58.58
2023-05-21T19:14:04.174Z,59.51
2023-05-21T19:16:34.203Z,60.22
2023-05-21T19:19:02.275Z,60.93
2023-05-21T19:21:32.359Z,62.34
2023-05-21T19:24:00.429Z,64.46
2023-05-21T19:26:29.322Z,66.66
2023-05-21T19:28:57.405Z,68.16
2023-05-21T19:31:32.178Z,69.05
2023-05-21T19:34:02.991Z,69.32
2023-05-21T19:36:48.352Z,70.04
2023-05-21T19:39:20.619Z,70.36
2023-05-21T19:41:49.710Z,70.86
2023-05-21T19:44:19.523Z,71.41
2023-05-21T19:46:51.617Z,72.36
2023-05-21T19:49:20.123Z,74.92
2023-05-21T19:51:49.500Z,77.11
2023-05-21T19:54:18.645Z,79.98
2023-05-21T19:56:46.886Z,79.99
2023-05-21T19:59:16.483Z,80.90
2023-05-21T20:01:44.810Z,80.32
2023-05-21T20:04:14.969Z,83.98
2023-05-21T20:06:43.745Z,86.60
2023-05-21T20:09:16.423Z,86.96
2023-05-21T20:11:45.019Z,87.63
2023-05-21T20:14:13.709Z,87.61
2023-05-21T20:16:47.061Z,92.77
2023-05-21T20:19:16.490Z,94.49
2023-05-21T20:21:44.558Z,96.21
2023-05-21T20:24:12.452Z,96.83
2023-05-21T20:26:41.208Z,97.48
2023-05-21T20:29:09.271Z,99.27
2023-05-21T20:31:37.241Z,98.93
2023-05-21T20:34:07.929Z,99.31
2023-05-21T20:36:37.845Z,99.88
2023-05-21T20:39:06.379Z,100.00
2023-05-21T20:41:36.311Z,100.00
2023-05-21T20:44:06.486Z,100.00
2023-05-21T20:46:38.752Z,100.00
2023-05-21T20:49:07.267Z,100.00
2023-05-21T20:51:35.411Z,100.00
2023-05-21T20:54:04.686Z,100.00
2023-05-21T20:56:42.042Z,100.00
2023-05-21T20:59:11.906Z,100.00
2023-05-21T21:01:41.591Z,100.00
2023-05-21T21:04:09.899Z,100.00
2023-05-21T21:06:38.646Z,100.00
2023-05-21T21:09:08.581Z,100.00
2023-05-21T21:11:37.553Z,100.00
2023-05-21T21:14:05.362Z,100.00
2023-05-21T21:16:34.320Z,100.00
2023-05-21T21:19:03.344Z,100.00
2023-05-21T21:21:31.925Z,100.00
2023-05-21T21:23:59.655Z,100.00
2023-05-21T21:26:29.417Z,100.00
2023-05-21T21:28:57.136Z,100.00
2023-05-21T21:31:25.371Z,100.00
2023-05-21T21:33:55.963Z,100.00
2023-05-21T21:36:24.052Z,100.00
2023-05-21T21:38:54.462Z,100.00
2023-05-21T21:41:23.074Z,100.00
2023-05-21T21:43:53.029Z,100.00
2023-05-21T21:46:21.279Z,100.00
2023-05-21T21:48:49.154Z,100.00
2023-05-21T21:51:17.254Z,100.00
2023-05-21T21:53:45.505Z,100.00
2023-05-21T21:56:13.747Z,100.00
2023-05-21T21:58:41.778Z,100.00
2023-05-21T22:01:11.973Z,100.00
2023-05-21T22:03:40.079Z,100.00
2023-05-21T22:06:08.051Z,100.00
2023-05-21T22:08:36.002Z,100.00
2023-05-21T22:11:04.000Z,100.00
2023-05-21T22:13:32.122Z,100.00
2023-05-21T22:15:59.869Z,100.00
2023-05-21T22:18:40.308Z,100.00
2023-05-21T22:21:11.021Z,100.00
2023-05-21T22:23:39.307Z,100.00
2023-05-21T22:26:07.452Z,100.00
2023-05-21T22:28:35.328Z,100.00
2023-05-21T22:31:03.459Z,100.00
2023-05-21T22:33:32.745Z,100.00
2023-05-21T22:36:00.427Z,100.00
2023-05-21T22:38:28.443Z,100.00
2023-05-21T22:40:56.289Z,100.00
2023-05-21T22:43:24.236Z,100.00
2023-05-21T22:45:53.149Z,100.00
2023-05-21T22:48:22.174Z,100.00
2023-05-21T22:50:58.179Z,100.00
2023-05-21T22:53:27.015Z,100.00
2023-05-21T22:55:55.163Z,100.00
2023-05-21T22:58:23.597Z,100.00
2023-05-21T23:00:52.806Z,100.00
2023-05-21T23:03:21.181Z,100.00
2023-05-21T23:05:52.638Z,100.00
2023-05-21T23:08:25.596Z,100.00
2023-05-21T23:10:54.225Z,100.00
2023-05-21T23:13:22.956Z,100.00
2023-05-21T23:15:51.717Z,100.00
2023-05-21T23:18:19.989Z,100.00
2023-05-21T23:20:48.199Z,100.00
2023-05-21T23:23:16.410Z,100.00
2023-05-21T23:25:46.656Z,100.00
2023-05-21T23:28:14.622Z,100.00
2023-05-21T23:30:42.583Z,100.00
2023-05-21T23:33:11.442Z,100.00
2023-05-21T23:35:39.779Z,100.00
2023-05-21T23:38:08.157Z,100.00
2023-05-21T23:40:37.483Z,100.00
2023-05-21T23:43:06.911Z,100.00
2023-05-21T23:45:34.876Z,100.00
2023-05-21T23:48:03.115Z,100.00
2023-05-21T23:50:30.880Z,100.00
2023-05-21T23:52:59.280Z,100.00
2023-05-21T23:55:27.427Z,100.00
2023-05-21T23:57:55.205Z,100.00
